sensor_id;sensor_type;location;lat;lon;timestamp;P1;durP1;ratioP1;P2;durP2;ratioP2
44862;SDS011;30597;49.628;10.850;2024-02-23T00:01:25;2.17;;;2.00;;
44862;SDS011;30597;49.628;10.850;2024-02-23T00:03:51;2.50;;;2.30;;
44862;SDS011;30597;49.628;10.850;2024-02-23T00:06:17;3.20;;;2.67;;
44862;SDS011;30597;49.628;10.850;2024-02-23T00:08:42;2.97;;;2.67;;
44862;SDS011;30597;49.628;10.850;2024-02-23T00:11:08;3.20;;;2.90;;
44862;SDS011;30597;49.628;10.850;2024-02-23T00:13:34;2.80;;;2.60;;
44862;SDS011;30597;49.628;10.850;2024-02-23T00:15:59;4.60;;;2.50;;
44862;SDS011;30597;49.628;10.850;2024-02-23T00:18:25;2.50;;;2.30;;
44862;SDS011;30597;49.628;10.850;2024-02-23T00:20:50;2.57;;;2.37;;
44862;SDS011;30597;49.628;10.850;2024-02-23T00:23:16;2.87;;;2.67;;
44862;SDS011;30597;49.628;10.850;2024-02-23T00:25:42;2.63;;;2.43;;
44862;SDS011;30597;49.628;10.850;2024-02-23T00:28:07;2.80;;;2.60;;
44862;SDS011;30597;49.628;10.850;2024-02-23T00:30:33;2.50;;;2.30;;
44862;SDS011;30597;49.628;10.850;2024-02-23T00:32:59;2.43;;;2.23;;
44862;SDS011;30597;49.628;10.850;2024-02-23T00:35:24;2.77;;;2.57;;
44862;SDS011;30597;49.628;10.850;2024-02-23T00:37:50;2.30;;;2.10;;
44862;SDS011;30597;49.628;10.850;2024-02-23T00:40:15;2.10;;;2.00;;
44862;SDS011;30597;49.628;10.850;2024-02-23T00:42:41;2.47;;;2.27;;
44862;SDS011;30597;49.628;10.850;2024-02-23T00:45:06;2.53;;;2.33;;
44862;SDS011;30597;49.628;10.850;2024-02-23T00:47:32;2.40;;;2.20;;
44862;SDS011;30597;49.628;10.850;2024-02-23T00:50:00;2.10;;;2.00;;
44862;SDS011;30597;49.628;10.850;2024-02-23T00:52:26;5.37;;;2.27;;
44862;SDS011;30597;49.628;10.850;2024-02-23T00:54:52;3.53;;;2.30;;
44862;SDS011;30597;49.628;10.850;2024-02-23T00:57:17;2.27;;;2.07;;
44862;SDS011;30597;49.628;10.850;2024-02-23T00:59:46;2.90;;;2.70;;
44862;SDS011;30597;49.628;10.850;2024-02-23T01:02:12;2.60;;;2.40;;
44862;SDS011;30597;49.628;10.850;2024-02-23T01:04:38;2.67;;;2.47;;
44862;SDS011;30597;49.628;10.850;2024-02-23T01:07:03;2.70;;;2.50;;
44862;SDS011;30597;49.628;10.850;2024-02-23T01:09:29;2.00;;;1.80;;
44862;SDS011;30597;49.628;10.850;2024-02-23T01:11:54;2.30;;;2.10;;
44862;SDS011;30597;49.628;10.850;2024-02-23T01:14:20;1.90;;;1.73;;
44862;SDS011;30597;49.628;10.850;2024-02-23T01:16:45;2.37;;;2.10;;
44862;SDS011;30597;49.628;10.850;2024-02-23T01:19:11;2.57;;;2.33;;
44862;SDS011;30597;49.628;10.850;2024-02-23T01:21:36;2.00;;;1.90;;
44862;SDS011;30597;49.628;10.850;2024-02-23T01:24:02;2.00;;;1.80;;
44862;SDS011;30597;49.628;10.850;2024-02-23T01:26:29;1.70;;;1.60;;
44862;SDS011;30597;49.628;10.850;2024-02-23T01:28:54;2.23;;;2.03;;
44862;SDS011;30597;49.628;10.850;2024-02-23T01:31:20;1.77;;;1.67;;
44862;SDS011;30597;49.628;10.850;2024-02-23T01:33:45;2.27;;;2.07;;
44862;SDS011;30597;49.628;10.850;2024-02-23T01:36:12;2.30;;;2.03;;
44862;SDS011;30597;49.628;10.850;2024-02-23T01:38:37;1.80;;;1.70;;
44862;SDS011;30597;49.628;10.850;2024-02-23T01:41:03;2.03;;;1.93;;
44862;SDS011;30597;49.628;10.850;2024-02-23T01:43:29;1.83;;;1.73;;
44862;SDS011;30597;49.628;10.850;2024-02-23T01:45:55;2.40;;;2.20;;
44862;SDS011;30597;49.628;10.850;2024-02-23T01:48:20;3.10;;;2.20;;
44862;SDS011;30597;49.628;10.850;2024-02-23T01:50:46;2.13;;;1.97;;
44862;SDS011;30597;49.628;10.850;2024-02-23T01:53:12;1.80;;;1.70;;
44862;SDS011;30597;49.628;10.850;2024-02-23T01:55:39;2.10;;;2.00;;
44862;SDS011;30597;49.628;10.850;2024-02-23T01:58:06;1.90;;;1.80;;
44862;SDS011;30597;49.628;10.850;2024-02-23T02:00:32;2.40;;;2.20;;
44862;SDS011;30597;49.628;10.850;2024-02-23T02:02:59;1.90;;;1.80;;
44862;SDS011;30597;49.628;10.850;2024-02-23T02:05:24;2.87;;;1.90;;
44862;SDS011;30597;49.628;10.850;2024-02-23T02:07:50;2.00;;;1.90;;
44862;SDS011;30597;49.628;10.850;2024-02-23T02:10:19;2.60;;;2.37;;
44862;SDS011;30597;49.628;10.850;2024-02-23T02:12:45;2.50;;;2.30;;
44862;SDS011;30597;49.628;10.850;2024-02-23T02:15:11;2.70;;;2.50;;
44862;SDS011;30597;49.628;10.850;2024-02-23T02:17:37;2.03;;;1.80;;
44862;SDS011;30597;49.628;10.850;2024-02-23T02:20:03;2.43;;;2.23;;
44862;SDS011;30597;49.628;10.850;2024-02-23T02:22:32;1.90;;;1.80;;
44862;SDS011;30597;49.628;10.850;2024-02-23T02:24:58;3.30;;;2.30;;
44862;SDS011;30597;49.628;10.850;2024-02-23T02:27:24;2.20;;;2.00;;
44862;SDS011;30597;49.628;10.850;2024-02-23T02:29:50;3.13;;;2.37;;
44862;SDS011;30597;49.628;10.850;2024-02-23T02:32:16;3.10;;;2.00;;
44862;SDS011;30597;49.628;10.850;2024-02-23T02:34:41;2.00;;;1.90;;
44862;SDS011;30597;49.628;10.850;2024-02-23T02:37:07;2.67;;;2.47;;
44862;SDS011;30597;49.628;10.850;2024-02-23T02:39:32;2.03;;;1.90;;
44862;SDS011;30597;49.628;10.850;2024-02-23T02:41:58;2.30;;;1.67;;
44862;SDS011;30597;49.628;10.850;2024-02-23T02:44:24;2.17;;;2.07;;
44862;SDS011;30597;49.628;10.850;2024-02-23T02:46:49;2.27;;;2.07;;
44862;SDS011;30597;49.628;10.850;2024-02-23T02:49:15;1.90;;;1.70;;
44862;SDS011;30597;49.628;10.850;2024-02-23T02:51:41;2.60;;;1.80;;
44862;SDS011;30597;49.628;10.850;2024-02-23T02:54:07;5.10;;;1.73;;
44862;SDS011;30597;49.628;10.850;2024-02-23T02:56:32;2.93;;;2.20;;
44862;SDS011;30597;49.628;10.850;2024-02-23T02:58:58;1.93;;;1.73;;
44862;SDS011;30597;49.628;10.850;2024-02-23T03:01:23;2.17;;;1.97;;
44862;SDS011;30597;49.628;10.850;2024-02-23T03:03:49;1.93;;;1.77;;
44862;SDS011;30597;49.628;10.850;2024-02-23T03:06:14;1.90;;;1.60;;
44862;SDS011;30597;49.628;10.850;2024-02-23T03:08:42;2.33;;;2.13;;
44862;SDS011;30597;49.628;10.850;2024-02-23T03:11:07;1.63;;;1.53;;
44862;SDS011;30597;49.628;10.850;2024-02-23T03:13:33;2.17;;;1.90;;
44862;SDS011;30597;49.628;10.850;2024-02-23T03:15:58;2.03;;;1.83;;
44862;SDS011;30597;49.628;10.850;2024-02-23T03:18:25;1.87;;;1.77;;
44862;SDS011;30597;49.628;10.850;2024-02-23T03:20:52;2.13;;;1.93;;
44862;SDS011;30597;49.628;10.850;2024-02-23T03:23:18;1.70;;;1.60;;
44862;SDS011;30597;49.628;10.850;2024-02-23T03:25:43;2.30;;;2.10;;
44862;SDS011;30597;49.628;10.850;2024-02-23T03:28:09;1.90;;;1.80;;
44862;SDS011;30597;49.628;10.850;2024-02-23T03:30:39;2.10;;;1.90;;
44862;SDS011;30597;49.628;10.850;2024-02-23T03:33:05;1.70;;;1.60;;
44862;SDS011;30597;49.628;10.850;2024-02-23T03:35:30;1.77;;;1.67;;
44862;SDS011;30597;49.628;10.850;2024-02-23T03:37:56;2.10;;;1.93;;
44862;SDS011;30597;49.628;10.850;2024-02-23T03:40:36;1.83;;;1.73;;
44862;SDS011;30597;49.628;10.850;2024-02-23T03:43:02;2.40;;;2.20;;
44862;SDS011;30597;49.628;10.850;2024-02-23T03:45:28;2.17;;;1.97;;
44862;SDS011;30597;49.628;10.850;2024-02-23T03:47:53;2.00;;;1.80;;
44862;SDS011;30597;49.628;10.850;2024-02-23T03:50:19;2.97;;;1.90;;
44862;SDS011;30597;49.628;10.850;2024-02-23T03:52:45;2.70;;;1.80;;
44862;SDS011;30597;49.628;10.850;2024-02-23T03:55:10;2.10;;;1.97;;
44862;SDS011;30597;49.628;10.850;2024-02-23T03:57:36;1.67;;;1.57;;
44862;SDS011;30597;49.628;10.850;2024-02-23T04:00:02;1.90;;;1.80;;
44862;SDS011;30597;49.628;10.850;2024-02-23T04:02:28;2.33;;;1.80;;
44862;SDS011;30597;49.628;10.850;2024-02-23T04:04:54;1.90;;;1.80;;
44862;SDS011;30597;49.628;10.850;2024-02-23T04:07:20;2.10;;;1.90;;
44862;SDS011;30597;49.628;10.850;2024-02-23T04:09:46;2.20;;;1.57;;
44862;SDS011;30597;49.628;10.850;2024-02-23T04:12:17;2.13;;;2.03;;
44862;SDS011;30597;49.628;10.850;2024-02-23T04:14:56;1.73;;;1.63;;
44862;SDS011;30597;49.628;10.850;2024-02-23T04:17:21;1.97;;;1.70;;
44862;SDS011;30597;49.628;10.850;2024-02-23T04:19:47;2.20;;;2.00;;
44862;SDS011;30597;49.628;10.850;2024-02-23T04:22:12;1.53;;;1.43;;
44862;SDS011;30597;49.628;10.850;2024-02-23T04:24:38;1.70;;;1.60;;
44862;SDS011;30597;49.628;10.850;2024-02-23T04:27:05;1.90;;;1.80;;
44862;SDS011;30597;49.628;10.850;2024-02-23T04:29:31;1.60;;;1.50;;
44862;SDS011;30597;49.628;10.850;2024-02-23T04:31:57;1.60;;;1.50;;
44862;SDS011;30597;49.628;10.850;2024-02-23T04:34:24;1.47;;;1.37;;
44862;SDS011;30597;49.628;10.850;2024-02-23T04:36:49;2.00;;;1.80;;
44862;SDS011;30597;49.628;10.850;2024-02-23T04:39:15;1.50;;;1.40;;
44862;SDS011;30597;49.628;10.850;2024-02-23T04:41:40;1.40;;;1.30;;
44862;SDS011;30597;49.628;10.850;2024-02-23T04:44:06;1.63;;;1.53;;
44862;SDS011;30597;49.628;10.850;2024-02-23T04:46:31;2.13;;;1.93;;
44862;SDS011;30597;49.628;10.850;2024-02-23T04:48:59;1.50;;;1.40;;
44862;SDS011;30597;49.628;10.850;2024-02-23T04:51:24;1.37;;;1.27;;
44862;SDS011;30597;49.628;10.850;2024-02-23T04:53:50;1.60;;;1.50;;
44862;SDS011;30597;49.628;10.850;2024-02-23T04:56:16;1.60;;;1.50;;
44862;SDS011;30597;49.628;10.850;2024-02-23T04:58:41;1.70;;;1.60;;
44862;SDS011;30597;49.628;10.850;2024-02-23T05:01:08;2.20;;;1.73;;
44862;SDS011;30597;49.628;10.850;2024-02-23T05:03:33;1.27;;;1.17;;
44862;SDS011;30597;49.628;10.850;2024-02-23T05:05:59;1.47;;;1.37;;
44862;SDS011;30597;49.628;10.850;2024-02-23T05:08:24;1.87;;;1.67;;
44862;SDS011;30597;49.628;10.850;2024-02-23T05:10:52;1.40;;;1.30;;
44862;SDS011;30597;49.628;10.850;2024-02-23T05:13:18;1.70;;;1.60;;
44862;SDS011;30597;49.628;10.850;2024-02-23T05:15:43;1.53;;;1.40;;
44862;SDS011;30597;49.628;10.850;2024-02-23T05:18:09;1.40;;;1.30;;
44862;SDS011;30597;49.628;10.850;2024-02-23T05:20:34;1.40;;;1.30;;
44862;SDS011;30597;49.628;10.850;2024-02-23T05:23:00;1.70;;;1.60;;
44862;SDS011;30597;49.628;10.850;2024-02-23T05:25:25;1.60;;;1.50;;
44862;SDS011;30597;49.628;10.850;2024-02-23T05:27:52;1.83;;;1.40;;
44862;SDS011;30597;49.628;10.850;2024-02-23T05:30:17;1.43;;;1.33;;
44862;SDS011;30597;49.628;10.850;2024-02-23T05:32:43;1.50;;;1.13;;
44862;SDS011;30597;49.628;10.850;2024-02-23T05:35:08;2.23;;;1.80;;
44862;SDS011;30597;49.628;10.850;2024-02-23T05:37:34;1.63;;;1.03;;
44862;SDS011;30597;49.628;10.850;2024-02-23T05:40:00;1.60;;;1.40;;
44862;SDS011;30597;49.628;10.850;2024-02-23T05:42:29;1.17;;;1.07;;
44862;SDS011;30597;49.628;10.850;2024-02-23T05:44:54;1.63;;;1.37;;
44862;SDS011;30597;49.628;10.850;2024-02-23T05:47:20;1.70;;;1.60;;
44862;SDS011;30597;49.628;10.850;2024-02-23T05:49:46;2.10;;;1.63;;
44862;SDS011;30597;49.628;10.850;2024-02-23T05:52:12;1.70;;;1.60;;
44862;SDS011;30597;49.628;10.850;2024-02-23T05:54:37;1.70;;;1.33;;
44862;SDS011;30597;49.628;10.850;2024-02-23T05:57:03;1.50;;;1.40;;
44862;SDS011;30597;49.628;10.850;2024-02-23T05:59:29;1.50;;;1.40;;
44862;SDS011;30597;49.628;10.850;2024-02-23T06:01:55;1.70;;;1.60;;
44862;SDS011;30597;49.628;10.850;2024-02-23T06:04:23;1.10;;;1.00;;
44862;SDS011;30597;49.628;10.850;2024-02-23T06:06:49;1.90;;;1.60;;
44862;SDS011;30597;49.628;10.850;2024-02-23T06:09:15;1.40;;;1.20;;
44862;SDS011;30597;49.628;10.850;2024-02-23T06:11:40;1.43;;;1.30;;
44862;SDS011;30597;49.628;10.850;2024-02-23T06:14:07;1.30;;;1.20;;
44862;SDS011;30597;49.628;10.850;2024-02-23T06:16:32;1.60;;;1.50;;
44862;SDS011;30597;49.628;10.850;2024-02-23T06:18:58;1.20;;;1.10;;
44862;SDS011;30597;49.628;10.850;2024-02-23T06:21:24;1.23;;;1.13;;
44862;SDS011;30597;49.628;10.850;2024-02-23T06:23:49;1.40;;;1.27;;
44862;SDS011;30597;49.628;10.850;2024-02-23T06:26:15;1.37;;;1.20;;
44862;SDS011;30597;49.628;10.850;2024-02-23T06:28:40;1.73;;;1.03;;
44862;SDS011;30597;49.628;10.850;2024-02-23T06:31:09;1.00;;;0.90;;
44862;SDS011;30597;49.628;10.850;2024-02-23T06:33:35;1.47;;;1.37;;
44862;SDS011;30597;49.628;10.850;2024-02-23T06:36:01;1.30;;;1.20;;
44862;SDS011;30597;49.628;10.850;2024-02-23T06:38:28;2.50;;;1.53;;
44862;SDS011;30597;49.628;10.850;2024-02-23T06:40:53;1.43;;;1.10;;
44862;SDS011;30597;49.628;10.850;2024-02-23T06:43:21;1.23;;;1.13;;
44862;SDS011;30597;49.628;10.850;2024-02-23T06:45:46;1.50;;;1.40;;
44862;SDS011;30597;49.628;10.850;2024-02-23T06:48:12;1.30;;;1.20;;
44862;SDS011;30597;49.628;10.850;2024-02-23T06:50:37;1.63;;;1.37;;
44862;SDS011;30597;49.628;10.850;2024-02-23T06:53:03;1.87;;;1.77;;
44862;SDS011;30597;49.628;10.850;2024-02-23T06:55:28;1.57;;;1.47;;
44862;SDS011;30597;49.628;10.850;2024-02-23T06:57:54;1.30;;;1.20;;
44862;SDS011;30597;49.628;10.850;2024-02-23T07:00:20;1.43;;;1.33;;
44862;SDS011;30597;49.628;10.850;2024-02-23T07:02:49;1.27;;;1.17;;
44862;SDS011;30597;49.628;10.850;2024-02-23T07:05:14;1.33;;;1.13;;
44862;SDS011;30597;49.628;10.850;2024-02-23T07:07:40;1.20;;;1.10;;
44862;SDS011;30597;49.628;10.850;2024-02-23T07:10:06;3.13;;;1.50;;
44862;SDS011;30597;49.628;10.850;2024-02-23T07:12:32;1.50;;;1.27;;
44862;SDS011;30597;49.628;10.850;2024-02-23T07:14:57;2.23;;;1.63;;
44862;SDS011;30597;49.628;10.850;2024-02-23T07:17:23;3.03;;;1.90;;
44862;SDS011;30597;49.628;10.850;2024-02-23T07:19:48;2.10;;;1.87;;
44862;SDS011;30597;49.628;10.850;2024-02-23T07:22:15;1.60;;;1.50;;
44862;SDS011;30597;49.628;10.850;2024-02-23T07:24:43;2.30;;;1.57;;
44862;SDS011;30597;49.628;10.850;2024-02-23T07:27:08;2.10;;;1.70;;
44862;SDS011;30597;49.628;10.850;2024-02-23T07:29:34;2.27;;;2.07;;
44862;SDS011;30597;49.628;10.850;2024-02-23T07:32:00;2.30;;;2.10;;
44862;SDS011;30597;49.628;10.850;2024-02-23T07:34:25;2.00;;;1.87;;
44862;SDS011;30597;49.628;10.850;2024-02-23T07:36:51;6.33;;;2.50;;
44862;SDS011;30597;49.628;10.850;2024-02-23T07:39:17;2.23;;;1.80;;
44862;SDS011;30597;49.628;10.850;2024-02-23T07:41:43;2.57;;;2.20;;
44862;SDS011;30597;49.628;10.850;2024-02-23T07:44:08;4.40;;;2.17;;
44862;SDS011;30597;49.628;10.850;2024-02-23T07:46:34;2.20;;;1.93;;
44862;SDS011;30597;49.628;10.850;2024-02-23T07:48:59;2.67;;;1.80;;
44862;SDS011;30597;49.628;10.850;2024-02-23T07:51:25;3.30;;;2.07;;
44862;SDS011;30597;49.628;10.850;2024-02-23T07:53:50;2.23;;;2.13;;
44862;SDS011;30597;49.628;10.850;2024-02-23T07:56:16;2.17;;;1.97;;
44862;SDS011;30597;49.628;10.850;2024-02-23T07:58:42;2.20;;;2.00;;
44862;SDS011;30597;49.628;10.850;2024-02-23T08:01:07;2.00;;;1.90;;
44862;SDS011;30597;49.628;10.850;2024-02-23T08:03:33;1.83;;;1.73;;
44862;SDS011;30597;49.628;10.850;2024-02-23T08:05:58;2.93;;;2.63;;
44862;SDS011;30597;49.628;10.850;2024-02-23T08:08:24;2.20;;;2.10;;
44862;SDS011;30597;49.628;10.850;2024-02-23T08:10:51;2.30;;;2.10;;
44862;SDS011;30597;49.628;10.850;2024-02-23T08:13:16;2.50;;;2.30;;
44862;SDS011;30597;49.628;10.850;2024-02-23T08:15:43;2.43;;;2.23;;
44862;SDS011;30597;49.628;10.850;2024-02-23T08:18:08;2.40;;;2.20;;
44862;SDS011;30597;49.628;10.850;2024-02-23T08:20:35;2.50;;;2.30;;
44862;SDS011;30597;49.628;10.850;2024-02-23T08:23:01;2.80;;;1.80;;
44862;SDS011;30597;49.628;10.850;2024-02-23T08:25:27;2.30;;;2.10;;
44862;SDS011;30597;49.628;10.850;2024-02-23T08:27:54;2.20;;;1.93;;
44862;SDS011;30597;49.628;10.850;2024-02-23T08:30:24;2.17;;;1.97;;
44862;SDS011;30597;49.628;10.850;2024-02-23T08:32:49;2.47;;;1.93;;
44862;SDS011;30597;49.628;10.850;2024-02-23T08:35:15;1.73;;;1.63;;
44862;SDS011;30597;49.628;10.850;2024-02-23T08:37:40;2.13;;;1.93;;
44862;SDS011;30597;49.628;10.850;2024-02-23T08:40:07;1.87;;;1.77;;
44862;SDS011;30597;49.628;10.850;2024-02-23T08:42:33;1.97;;;1.70;;
44862;SDS011;30597;49.628;10.850;2024-02-23T08:44:59;2.10;;;1.90;;
44862;SDS011;30597;49.628;10.850;2024-02-23T08:47:25;1.70;;;1.60;;
44862;SDS011;30597;49.628;10.850;2024-02-23T08:49:53;2.20;;;1.77;;
44862;SDS011;30597;49.628;10.850;2024-02-23T08:52:18;2.00;;;1.67;;
44862;SDS011;30597;49.628;10.850;2024-02-23T08:54:44;2.10;;;2.00;;
44862;SDS011;30597;49.628;10.850;2024-02-23T08:57:09;2.30;;;2.10;;
44862;SDS011;30597;49.628;10.850;2024-02-23T08:59:35;1.70;;;1.53;;
44862;SDS011;30597;49.628;10.850;2024-02-23T09:02:01;1.70;;;1.50;;
44862;SDS011;30597;49.628;10.850;2024-02-23T09:04:27;1.60;;;1.50;;
44862;SDS011;30597;49.628;10.850;2024-02-23T09:06:53;1.83;;;1.73;;
44862;SDS011;30597;49.628;10.850;2024-02-23T09:09:18;1.90;;;1.77;;
44862;SDS011;30597;49.628;10.850;2024-02-23T09:11:44;2.50;;;2.27;;
44862;SDS011;30597;49.628;10.850;2024-02-23T09:14:10;2.37;;;2.17;;
44862;SDS011;30597;49.628;10.850;2024-02-23T09:16:35;1.60;;;1.50;;
44862;SDS011;30597;49.628;10.850;2024-02-23T09:19:01;2.00;;;1.83;;
44862;SDS011;30597;49.628;10.850;2024-02-23T09:21:26;2.00;;;1.80;;
44862;SDS011;30597;49.628;10.850;2024-02-23T09:23:52;1.60;;;1.50;;
44862;SDS011;30597;49.628;10.850;2024-02-23T09:26:17;1.87;;;1.77;;
44862;SDS011;30597;49.628;10.850;2024-02-23T09:28:43;2.07;;;1.97;;
44862;SDS011;30597;49.628;10.850;2024-02-23T09:31:10;1.90;;;1.80;;
44862;SDS011;30597;49.628;10.850;2024-02-23T09:33:36;1.87;;;1.70;;
44862;SDS011;30597;49.628;10.850;2024-02-23T09:36:01;2.53;;;1.97;;
44862;SDS011;30597;49.628;10.850;2024-02-23T09:38:27;1.77;;;1.67;;
44862;SDS011;30597;49.628;10.850;2024-02-23T09:40:53;1.70;;;1.43;;
44862;SDS011;30597;49.628;10.850;2024-02-23T09:43:19;2.00;;;1.73;;
44862;SDS011;30597;49.628;10.850;2024-02-23T09:45:47;2.00;;;1.77;;
44862;SDS011;30597;49.628;10.850;2024-02-23T09:48:16;2.57;;;1.80;;
44862;SDS011;30597;49.628;10.850;2024-02-23T09:50:43;1.57;;;1.40;;
44862;SDS011;30597;49.628;10.850;2024-02-23T09:53:09;2.00;;;1.90;;
44862;SDS011;30597;49.628;10.850;2024-02-23T09:55:38;2.13;;;1.93;;
44862;SDS011;30597;49.628;10.850;2024-02-23T09:58:03;2.17;;;1.97;;
44862;SDS011;30597;49.628;10.850;2024-02-23T10:00:31;2.30;;;2.10;;
44862;SDS011;30597;49.628;10.850;2024-02-23T10:02:58;1.80;;;1.70;;
44862;SDS011;30597;49.628;10.850;2024-02-23T10:05:26;4.20;;;1.50;;
44862;SDS011;30597;49.628;10.850;2024-02-23T10:07:58;2.17;;;1.50;;
44862;SDS011;30597;49.628;10.850;2024-02-23T10:10:33;2.90;;;2.60;;
44862;SDS011;30597;49.628;10.850;2024-02-23T10:13:02;1.80;;;1.40;;
44862;SDS011;30597;49.628;10.850;2024-02-23T10:15:29;3.80;;;2.40;;
44862;SDS011;30597;49.628;10.850;2024-02-23T10:17:58;2.23;;;1.83;;
44862;SDS011;30597;49.628;10.850;2024-02-23T10:20:24;2.70;;;2.30;;
44862;SDS011;30597;49.628;10.850;2024-02-23T10:22:49;2.33;;;1.80;;
44862;SDS011;30597;49.628;10.850;2024-02-23T10:25:15;1.80;;;1.70;;
44862;SDS011;30597;49.628;10.850;2024-02-23T10:27:42;1.70;;;1.60;;
44862;SDS011;30597;49.628;10.850;2024-02-23T10:30:08;2.53;;;1.70;;
44862;SDS011;30597;49.628;10.850;2024-02-23T10:32:36;3.20;;;2.07;;
44862;SDS011;30597;49.628;10.850;2024-02-23T10:35:05;1.80;;;1.70;;
44862;SDS011;30597;49.628;10.850;2024-02-23T10:37:41;2.70;;;1.73;;
44862;SDS011;30597;49.628;10.850;2024-02-23T10:40:08;1.83;;;1.53;;
44862;SDS011;30597;49.628;10.850;2024-02-23T10:42:37;2.27;;;2.07;;
44862;SDS011;30597;49.628;10.850;2024-02-23T10:45:04;2.53;;;1.90;;
44862;SDS011;30597;49.628;10.850;2024-02-23T10:47:31;3.07;;;2.30;;
44862;SDS011;30597;49.628;10.850;2024-02-23T10:50:01;2.23;;;2.03;;
44862;SDS011;30597;49.628;10.850;2024-02-23T10:52:27;2.50;;;1.87;;
44862;SDS011;30597;49.628;10.850;2024-02-23T10:54:53;2.83;;;1.60;;
44862;SDS011;30597;49.628;10.850;2024-02-23T10:57:20;3.47;;;2.07;;
44862;SDS011;30597;49.628;10.850;2024-02-23T10:59:46;1.93;;;1.63;;
44862;SDS011;30597;49.628;10.850;2024-02-23T11:02:13;1.93;;;1.67;;
44862;SDS011;30597;49.628;10.850;2024-02-23T11:04:48;2.90;;;2.47;;
44862;SDS011;30597;49.628;10.850;2024-02-23T11:07:20;5.23;;;2.60;;
44862;SDS011;30597;49.628;10.850;2024-02-23T11:09:53;4.00;;;2.67;;
44862;SDS011;30597;49.628;10.850;2024-02-23T11:12:26;8.60;;;2.67;;
44862;SDS011;30597;49.628;10.850;2024-02-23T11:14:57;4.60;;;3.37;;
44862;SDS011;30597;49.628;10.850;2024-02-23T11:17:28;5.20;;;3.23;;
44862;SDS011;30597;49.628;10.850;2024-02-23T11:19:55;9.20;;;4.60;;
44862;SDS011;30597;49.628;10.850;2024-02-23T11:22:25;5.93;;;4.27;;
44862;SDS011;30597;49.628;10.850;2024-02-23T11:25:02;9.77;;;4.10;;
44862;SDS011;30597;49.628;10.850;2024-02-23T11:27:31;10.00;;;4.70;;
44862;SDS011;30597;49.628;10.850;2024-02-23T11:30:07;7.83;;;4.20;;
44862;SDS011;30597;49.628;10.850;2024-02-23T11:32:38;10.60;;;4.10;;
44862;SDS011;30597;49.628;10.850;2024-02-23T11:35:10;8.63;;;4.03;;
44862;SDS011;30597;49.628;10.850;2024-02-23T11:37:55;6.90;;;4.00;;
44862;SDS011;30597;49.628;10.850;2024-02-23T11:40:25;7.47;;;4.57;;
44862;SDS011;30597;49.628;10.850;2024-02-23T11:42:51;8.13;;;4.27;;
44862;SDS011;30597;49.628;10.850;2024-02-23T11:45:19;5.07;;;4.00;;
44862;SDS011;30597;49.628;10.850;2024-02-23T11:47:44;8.00;;;4.50;;
44862;SDS011;30597;49.628;10.850;2024-02-23T11:50:10;8.20;;;4.17;;
44862;SDS011;30597;49.628;10.850;2024-02-23T11:52:39;11.07;;;3.40;;
44862;SDS011;30597;49.628;10.850;2024-02-23T11:55:06;5.57;;;3.80;;
44862;SDS011;30597;49.628;10.850;2024-02-23T11:57:33;5.30;;;3.90;;
44862;SDS011;30597;49.628;10.850;2024-02-23T12:00:01;6.90;;;3.83;;
44862;SDS011;30597;49.628;10.850;2024-02-23T12:02:28;7.07;;;4.40;;
44862;SDS011;30597;49.628;10.850;2024-02-23T12:04:53;5.33;;;3.97;;
44862;SDS011;30597;49.628;10.850;2024-02-23T12:07:19;7.00;;;4.17;;
44862;SDS011;30597;49.628;10.850;2024-02-23T12:09:46;8.00;;;4.60;;
44862;SDS011;30597;49.628;10.850;2024-02-23T12:12:12;4.53;;;3.90;;
44862;SDS011;30597;49.628;10.850;2024-02-23T12:14:39;7.63;;;4.03;;
44862;SDS011;30597;49.628;10.850;2024-02-23T12:17:05;7.40;;;4.83;;
44862;SDS011;30597;49.628;10.850;2024-02-23T12:19:32;9.33;;;4.43;;
44862;SDS011;30597;49.628;10.850;2024-02-23T12:22:01;6.60;;;4.67;;
44862;SDS011;30597;49.628;10.850;2024-02-23T12:24:26;5.20;;;3.93;;
44862;SDS011;30597;49.628;10.850;2024-02-23T12:26:55;12.73;;;4.70;;
44862;SDS011;30597;49.628;10.850;2024-02-23T12:29:21;6.37;;;3.23;;
44862;SDS011;30597;49.628;10.850;2024-02-23T12:31:47;5.87;;;3.67;;
44862;SDS011;30597;49.628;10.850;2024-02-23T12:34:13;5.20;;;4.37;;
44862;SDS011;30597;49.628;10.850;2024-02-23T12:36:39;6.27;;;4.47;;
44862;SDS011;30597;49.628;10.850;2024-02-23T12:39:04;5.03;;;4.00;;
44862;SDS011;30597;49.628;10.850;2024-02-23T12:41:30;5.23;;;4.50;;
44862;SDS011;30597;49.628;10.850;2024-02-23T12:43:56;5.10;;;4.00;;
44862;SDS011;30597;49.628;10.850;2024-02-23T12:46:21;6.40;;;4.07;;
44862;SDS011;30597;49.628;10.850;2024-02-23T12:48:48;5.13;;;3.13;;
44862;SDS011;30597;49.628;10.850;2024-02-23T12:51:14;4.90;;;3.70;;
44862;SDS011;30597;49.628;10.850;2024-02-23T12:53:40;6.27;;;3.80;;
44862;SDS011;30597;49.628;10.850;2024-02-23T12:56:07;5.10;;;3.50;;
44862;SDS011;30597;49.628;10.850;2024-02-23T12:58:38;4.13;;;3.60;;
44862;SDS011;30597;49.628;10.850;2024-02-23T13:01:04;5.90;;;3.30;;
44862;SDS011;30597;49.628;10.850;2024-02-23T13:03:31;3.90;;;3.50;;
44862;SDS011;30597;49.628;10.850;2024-02-23T13:05:58;5.27;;;3.07;;
44862;SDS011;30597;49.628;10.850;2024-02-23T13:08:24;4.10;;;2.80;;
44862;SDS011;30597;49.628;10.850;2024-02-23T13:10:51;4.57;;;3.20;;
44862;SDS011;30597;49.628;10.850;2024-02-23T13:13:18;4.27;;;3.10;;
44862;SDS011;30597;49.628;10.850;2024-02-23T13:15:44;3.80;;;2.60;;
44862;SDS011;30597;49.628;10.850;2024-02-23T13:18:10;3.17;;;2.77;;
44862;SDS011;30597;49.628;10.850;2024-02-23T13:20:36;3.80;;;2.73;;
44862;SDS011;30597;49.628;10.850;2024-02-23T13:23:02;4.30;;;3.10;;
44862;SDS011;30597;49.628;10.850;2024-02-23T13:25:28;4.43;;;2.33;;
44862;SDS011;30597;49.628;10.850;2024-02-23T13:27:54;5.90;;;2.90;;
44862;SDS011;30597;49.628;10.850;2024-02-23T13:30:19;4.87;;;3.20;;
44862;SDS011;30597;49.628;10.850;2024-02-23T13:32:45;4.30;;;2.80;;
44862;SDS011;30597;49.628;10.850;2024-02-23T13:35:10;5.07;;;3.03;;
44862;SDS011;30597;49.628;10.850;2024-02-23T13:37:36;4.37;;;2.80;;
44862;SDS011;30597;49.628;10.850;2024-02-23T13:40:01;6.10;;;2.60;;
44862;SDS011;30597;49.628;10.850;2024-02-23T13:42:28;4.77;;;3.30;;
44862;SDS011;30597;49.628;10.850;2024-02-23T13:44:54;4.07;;;2.80;;
44862;SDS011;30597;49.628;10.850;2024-02-23T13:47:19;2.63;;;2.17;;
44862;SDS011;30597;49.628;10.850;2024-02-23T13:49:45;3.30;;;2.60;;
44862;SDS011;30597;49.628;10.850;2024-02-23T13:52:10;3.20;;;2.77;;
44862;SDS011;30597;49.628;10.850;2024-02-23T13:54:36;5.07;;;2.80;;
44862;SDS011;30597;49.628;10.850;2024-02-23T13:57:02;4.00;;;2.80;;
44862;SDS011;30597;49.628;10.850;2024-02-23T13:59:27;3.10;;;2.40;;
44862;SDS011;30597;49.628;10.850;2024-02-23T14:01:53;4.00;;;2.70;;
44862;SDS011;30597;49.628;10.850;2024-02-23T14:04:18;3.00;;;2.43;;
44862;SDS011;30597;49.628;10.850;2024-02-23T14:06:44;2.67;;;2.30;;
44862;SDS011;30597;49.628;10.850;2024-02-23T14:09:09;3.10;;;2.50;;
44862;SDS011;30597;49.628;10.850;2024-02-23T14:11:35;3.80;;;2.50;;
44862;SDS011;30597;49.628;10.850;2024-02-23T14:14:01;4.30;;;2.30;;
44862;SDS011;30597;49.628;10.850;2024-02-23T14:16:27;2.70;;;2.13;;
44862;SDS011;30597;49.628;10.850;2024-02-23T14:18:53;2.90;;;2.27;;
44862;SDS011;30597;49.628;10.850;2024-02-23T14:21:20;3.43;;;2.50;;
44862;SDS011;30597;49.628;10.850;2024-02-23T14:23:47;3.10;;;1.80;;
44862;SDS011;30597;49.628;10.850;2024-02-23T14:26:13;2.97;;;2.37;;
44862;SDS011;30597;49.628;10.850;2024-02-23T14:28:38;5.67;;;2.43;;